sensor_id;sensor_type;location;lat;lon;timestamp;P1;durP1;ratioP1;P2;durP2;ratioP2
16099;SDS011;8154;50.830;12.082;2022-09-27T00:01:04;1.00;;;1.00;;
16099;SDS011;8154;50.830;12.082;2022-09-27T00:03:54;0.82;;;0.82;;
16099;SDS011;8154;50.830;12.082;2022-09-27T00:06:39;1.00;;;1.00;;
16099;SDS011;8154;50.830;12.082;2022-09-27T00:09:24;0.90;;;0.90;;
16099;SDS011;8154;50.830;12.082;2022-09-27T00:12:09;0.90;;;0.90;;
16099;SDS011;8154;50.830;12.082;2022-09-27T00:14:54;1.00;;;1.00;;
16099;SDS011;8154;50.830;12.082;2022-09-27T00:17:38;0.88;;;0.88;;
16099;SDS011;8154;50.830;12.082;2022-09-27T00:20:23;0.90;;;0.90;;
16099;SDS011;8154;50.830;12.082;2022-09-27T00:23:09;0.90;;;0.90;;
16099;SDS011;8154;50.830;12.082;2022-09-27T00:25:54;0.90;;;0.90;;
16099;SDS011;8154;50.830;12.082;2022-09-27T00:28:39;0.90;;;0.90;;
16099;SDS011;8154;50.830;12.082;2022-09-27T00:34:19;0.90;;;0.90;;
16099;SDS011;8154;50.830;12.082;2022-09-27T00:37:06;1.00;;;1.00;;
16099;SDS011;8154;50.830;12.082;2022-09-27T00:39:51;0.80;;;0.80;;
16099;SDS011;8154;50.830;12.082;2022-09-27T00:42:36;0.85;;;0.85;;
16099;SDS011;8154;50.830;12.082;2022-09-27T00:45:21;0.90;;;0.90;;
16099;SDS011;8154;50.830;12.082;2022-09-27T00:48:05;1.00;;;1.00;;
16099;SDS011;8154;50.830;12.082;2022-09-27T00:50:53;0.80;;;0.80;;
16099;SDS011;8154;50.830;12.082;2022-09-27T00:53:43;1.00;;;1.00;;
16099;SDS011;8154;50.830;12.082;2022-09-27T00:56:34;0.80;;;0.80;;
16099;SDS011;8154;50.830;12.082;2022-09-27T00:59:22;0.80;;;0.80;;
16099;SDS011;8154;50.830;12.082;2022-09-27T01:02:36;0.90;;;0.90;;
16099;SDS011;8154;50.830;12.082;2022-09-27T01:05:24;0.90;;;0.90;;
16099;SDS011;8154;50.830;12.082;2022-09-27T01:08:12;0.90;;;0.90;;
16099;SDS011;8154;50.830;12.082;2022-09-27T01:11:23;0.80;;;0.80;;
16099;SDS011;8154;50.830;12.082;2022-09-27T01:20:17;1.00;;;1.00;;
16099;SDS011;8154;50.830;12.082;2022-09-27T01:26:53;0.93;;;0.93;;
16099;SDS011;8154;50.830;12.082;2022-09-27T01:32:30;0.80;;;0.80;;
16099;SDS011;8154;50.830;12.082;2022-09-27T01:35:34;0.90;;;0.90;;
16099;SDS011;8154;50.830;12.082;2022-09-27T01:41:53;0.90;;;0.90;;
16099;SDS011;8154;50.830;12.082;2022-09-27T01:44:50;0.90;;;0.90;;
16099;SDS011;8154;50.830;12.082;2022-09-27T01:48:06;0.90;;;0.90;;
16099;SDS011;8154;50.830;12.082;2022-09-27T01:51:13;0.85;;;0.85;;
16099;SDS011;8154;50.830;12.082;2022-09-27T01:54:00;0.90;;;0.90;;
16099;SDS011;8154;50.830;12.082;2022-09-27T01:56:48;0.90;;;0.90;;
16099;SDS011;8154;50.830;12.082;2022-09-27T01:59:44;0.90;;;0.90;;
16099;SDS011;8154;50.830;12.082;2022-09-27T02:02:39;0.80;;;0.80;;
16099;SDS011;8154;50.830;12.082;2022-09-27T02:05:51;0.90;;;0.90;;
16099;SDS011;8154;50.830;12.082;2022-09-27T02:08:57;0.93;;;0.93;;
16099;SDS011;8154;50.830;12.082;2022-09-27T02:11:44;0.93;;;0.93;;
16099;SDS011;8154;50.830;12.082;2022-09-27T02:14:52;0.90;;;0.90;;
16099;SDS011;8154;50.830;12.082;2022-09-27T02:17:43;0.80;;;0.80;;
16099;SDS011;8154;50.830;12.082;2022-09-27T02:20:53;0.80;;;0.80;;
16099;SDS011;8154;50.830;12.082;2022-09-27T02:23:51;0.80;;;0.80;;
16099;SDS011;8154;50.830;12.082;2022-09-27T02:26:42;0.85;;;0.85;;
16099;SDS011;8154;50.830;12.082;2022-09-27T02:29:35;0.90;;;0.90;;
16099;SDS011;8154;50.830;12.082;2022-09-27T02:32:26;0.80;;;0.80;;
16099;SDS011;8154;50.830;12.082;2022-09-27T02:35:14;0.85;;;0.85;;
16099;SDS011;8154;50.830;12.082;2022-09-27T02:38:03;0.80;;;0.80;;
16099;SDS011;8154;50.830;12.082;2022-09-27T02:40:50;0.82;;;0.82;;
16099;SDS011;8154;50.830;12.082;2022-09-27T02:43:35;0.70;;;0.70;;
16099;SDS011;8154;50.830;12.082;2022-09-27T02:52:16;0.70;;;0.70;;
16099;SDS011;8154;50.830;12.082;2022-09-27T02:55:23;0.80;;;0.80;;
16099;SDS011;8154;50.830;12.082;2022-09-27T02:58:32;0.98;;;0.98;;
16099;SDS011;8154;50.830;12.082;2022-09-27T03:05:09;0.70;;;0.70;;
16099;SDS011;8154;50.830;12.082;2022-09-27T03:07:59;0.90;;;0.90;;
16099;SDS011;8154;50.830;12.082;2022-09-27T03:10:44;0.70;;;0.70;;
16099;SDS011;8154;50.830;12.082;2022-09-27T03:13:29;0.90;;;0.90;;
16099;SDS011;8154;50.830;12.082;2022-09-27T03:16:14;0.80;;;0.80;;
16099;SDS011;8154;50.830;12.082;2022-09-27T03:18:58;0.80;;;0.80;;
16099;SDS011;8154;50.830;12.082;2022-09-27T03:21:43;0.80;;;0.80;;
16099;SDS011;8154;50.830;12.082;2022-09-27T03:24:28;0.70;;;0.70;;
16099;SDS011;8154;50.830;12.082;2022-09-27T03:27:13;0.70;;;0.70;;
16099;SDS011;8154;50.830;12.082;2022-09-27T03:29:58;0.73;;;0.73;;
16099;SDS011;8154;50.830;12.082;2022-09-27T03:32:43;0.80;;;0.80;;
16099;SDS011;8154;50.830;12.082;2022-09-27T03:35:27;0.80;;;0.80;;
16099;SDS011;8154;50.830;12.082;2022-09-27T03:38:12;0.90;;;0.90;;
16099;SDS011;8154;50.830;12.082;2022-09-27T03:40:57;0.80;;;0.80;;
16099;SDS011;8154;50.830;12.082;2022-09-27T03:43:41;0.80;;;0.80;;
16099;SDS011;8154;50.830;12.082;2022-09-27T03:46:25;0.75;;;0.75;;
16099;SDS011;8154;50.830;12.082;2022-09-27T03:49:10;0.80;;;0.80;;
16099;SDS011;8154;50.830;12.082;2022-09-27T03:51:55;0.77;;;0.77;;
16099;SDS011;8154;50.830;12.082;2022-09-27T03:54:39;0.60;;;0.60;;
16099;SDS011;8154;50.830;12.082;2022-09-27T03:57:24;0.77;;;0.77;;
16099;SDS011;8154;50.830;12.082;2022-09-27T04:00:09;0.80;;;0.80;;
16099;SDS011;8154;50.830;12.082;2022-09-27T04:02:57;0.70;;;0.70;;
16099;SDS011;8154;50.830;12.082;2022-09-27T04:05:43;0.73;;;0.73;;
16099;SDS011;8154;50.830;12.082;2022-09-27T04:08:28;0.80;;;0.80;;
16099;SDS011;8154;50.830;12.082;2022-09-27T04:11:13;0.80;;;0.80;;
16099;SDS011;8154;50.830;12.082;2022-09-27T04:14:02;0.68;;;0.68;;
16099;SDS011;8154;50.830;12.082;2022-09-27T04:16:48;0.70;;;0.70;;
16099;SDS011;8154;50.830;12.082;2022-09-27T04:19:32;0.70;;;0.70;;
16099;SDS011;8154;50.830;12.082;2022-09-27T04:22:17;0.70;;;0.70;;
16099;SDS011;8154;50.830;12.082;2022-09-27T04:25:02;0.65;;;0.65;;
16099;SDS011;8154;50.830;12.082;2022-09-27T04:27:46;0.80;;;0.80;;
16099;SDS011;8154;50.830;12.082;2022-09-27T04:30:31;0.70;;;0.70;;
16099;SDS011;8154;50.830;12.082;2022-09-27T04:33:16;0.70;;;0.70;;
16099;SDS011;8154;50.830;12.082;2022-09-27T04:36:00;0.88;;;0.88;;
16099;SDS011;8154;50.830;12.082;2022-09-27T04:39:20;0.70;;;0.70;;
16099;SDS011;8154;50.830;12.082;2022-09-27T04:42:05;0.80;;;0.80;;
16099;SDS011;8154;50.830;12.082;2022-09-27T04:45:01;0.70;;;0.70;;
16099;SDS011;8154;50.830;12.082;2022-09-27T04:47:51;0.77;;;0.77;;
16099;SDS011;8154;50.830;12.082;2022-09-27T04:50:35;0.80;;;0.80;;
16099;SDS011;8154;50.830;12.082;2022-09-27T04:53:20;0.70;;;0.70;;
16099;SDS011;8154;50.830;12.082;2022-09-27T04:56:04;0.82;;;0.82;;
16099;SDS011;8154;50.830;12.082;2022-09-27T04:58:50;0.70;;;0.70;;
16099;SDS011;8154;50.830;12.082;2022-09-27T05:01:39;0.80;;;0.80;;
16099;SDS011;8154;50.830;12.082;2022-09-27T05:04:24;0.90;;;0.90;;
16099;SDS011;8154;50.830;12.082;2022-09-27T05:07:08;0.88;;;0.88;;
16099;SDS011;8154;50.830;12.082;2022-09-27T05:09:54;0.90;;;0.90;;
16099;SDS011;8154;50.830;12.082;2022-09-27T05:12:39;0.90;;;0.90;;
16099;SDS011;8154;50.830;12.082;2022-09-27T05:15:24;0.90;;;0.90;;
16099;SDS011;8154;50.830;12.082;2022-09-27T05:18:08;1.08;;;1.08;;
16099;SDS011;8154;50.830;12.082;2022-09-27T05:20:53;1.00;;;1.00;;
16099;SDS011;8154;50.830;12.082;2022-09-27T05:23:41;1.00;;;1.00;;
16099;SDS011;8154;50.830;12.082;2022-09-27T05:26:28;1.00;;;1.00;;
16099;SDS011;8154;50.830;12.082;2022-09-27T05:29:13;1.10;;;1.10;;
16099;SDS011;8154;50.830;12.082;2022-09-27T05:31:58;0.95;;;0.95;;
16099;SDS011;8154;50.830;12.082;2022-09-27T05:34:43;1.00;;;1.00;;
16099;SDS011;8154;50.830;12.082;2022-09-27T05:37:28;1.10;;;1.10;;
16099;SDS011;8154;50.830;12.082;2022-09-27T05:40:17;1.00;;;1.00;;
16099;SDS011;8154;50.830;12.082;2022-09-27T05:43:03;0.90;;;0.90;;
16099;SDS011;8154;50.830;12.082;2022-09-27T05:45:49;1.00;;;1.00;;
16099;SDS011;8154;50.830;12.082;2022-09-27T05:48:37;1.02;;;1.02;;
16099;SDS011;8154;50.830;12.082;2022-09-27T05:51:23;1.00;;;1.00;;
16099;SDS011;8154;50.830;12.082;2022-09-27T05:54:07;1.00;;;1.00;;
16099;SDS011;8154;50.830;12.082;2022-09-27T05:56:55;1.10;;;1.10;;
16099;SDS011;8154;50.830;12.082;2022-09-27T05:59:43;1.00;;;1.00;;
16099;SDS011;8154;50.830;12.082;2022-09-27T06:02:27;1.00;;;1.00;;
16099;SDS011;8154;50.830;12.082;2022-09-27T06:05:12;1.00;;;1.00;;
16099;SDS011;8154;50.830;12.082;2022-09-27T06:07:57;1.00;;;1.00;;
16099;SDS011;8154;50.830;12.082;2022-09-27T06:10:44;0.95;;;0.95;;
16099;SDS011;8154;50.830;12.082;2022-09-27T06:13:30;1.00;;;1.00;;
16099;SDS011;8154;50.830;12.082;2022-09-27T06:16:16;1.00;;;1.00;;
16099;SDS011;8154;50.830;12.082;2022-09-27T06:19:00;1.00;;;1.00;;
16099;SDS011;8154;50.830;12.082;2022-09-27T06:21:50;1.00;;;1.00;;
16099;SDS011;8154;50.830;12.082;2022-09-27T06:24:34;0.90;;;0.90;;
16099;SDS011;8154;50.830;12.082;2022-09-27T06:27:19;0.90;;;0.90;;
16099;SDS011;8154;50.830;12.082;2022-09-27T06:30:08;1.00;;;1.00;;
16099;SDS011;8154;50.830;12.082;2022-09-27T06:33:00;1.02;;;1.02;;
16099;SDS011;8154;50.830;12.082;2022-09-27T06:35:45;1.00;;;1.00;;
16099;SDS011;8154;50.830;12.082;2022-09-27T06:38:32;1.00;;;1.00;;
16099;SDS011;8154;50.830;12.082;2022-09-27T06:41:24;0.90;;;0.90;;
16099;SDS011;8154;50.830;12.082;2022-09-27T06:44:08;1.10;;;1.10;;
16099;SDS011;8154;50.830;12.082;2022-09-27T06:46:53;0.90;;;0.90;;
16099;SDS011;8154;50.830;12.082;2022-09-27T06:49:38;0.80;;;0.80;;
16099;SDS011;8154;50.830;12.082;2022-09-27T06:52:23;1.02;;;1.02;;
16099;SDS011;8154;50.830;12.082;2022-09-27T06:55:08;0.93;;;0.93;;
16099;SDS011;8154;50.830;12.082;2022-09-27T06:57:54;1.00;;;1.00;;
16099;SDS011;8154;50.830;12.082;2022-09-27T07:00:57;0.85;;;0.85;;
16099;SDS011;8154;50.830;12.082;2022-09-27T07:03:41;0.90;;;0.90;;
16099;SDS011;8154;50.830;12.082;2022-09-27T07:06:28;0.90;;;0.90;;
16099;SDS011;8154;50.830;12.082;2022-09-27T07:09:16;1.00;;;1.00;;
16099;SDS011;8154;50.830;12.082;2022-09-27T07:12:00;0.88;;;0.88;;
16099;SDS011;8154;50.830;12.082;2022-09-27T07:14:54;0.73;;;0.73;;
16099;SDS011;8154;50.830;12.082;2022-09-27T07:17:40;0.90;;;0.90;;
16099;SDS011;8154;50.830;12.082;2022-09-27T07:20:25;0.98;;;0.98;;
16099;SDS011;8154;50.830;12.082;2022-09-27T07:23:13;0.90;;;0.90;;
16099;SDS011;8154;50.830;12.082;2022-09-27T07:26:02;0.90;;;0.90;;
16099;SDS011;8154;50.830;12.082;2022-09-27T07:28:48;1.00;;;1.00;;
16099;SDS011;8154;50.830;12.082;2022-09-27T07:31:32;1.00;;;1.00;;
16099;SDS011;8154;50.830;12.082;2022-09-27T07:34:16;0.90;;;0.90;;
16099;SDS011;8154;50.830;12.082;2022-09-27T07:37:02;0.93;;;0.93;;
16099;SDS011;8154;50.830;12.082;2022-09-27T07:39:49;0.93;;;0.93;;
16099;SDS011;8154;50.830;12.082;2022-09-27T07:42:36;1.00;;;1.00;;
16099;SDS011;8154;50.830;12.082;2022-09-27T07:45:23;0.90;;;0.90;;
16099;SDS011;8154;50.830;12.082;2022-09-27T07:48:12;0.80;;;0.80;;
16099;SDS011;8154;50.830;12.082;2022-09-27T07:50:57;1.00;;;1.00;;
16099;SDS011;8154;50.830;12.082;2022-09-27T07:53:50;1.00;;;1.00;;
16099;SDS011;8154;50.830;12.082;2022-09-27T07:56:40;0.93;;;0.93;;
16099;SDS011;8154;50.830;12.082;2022-09-27T07:59:29;1.00;;;1.00;;
16099;SDS011;8154;50.830;12.082;2022-09-27T08:02:14;1.00;;;1.00;;
16099;SDS011;8154;50.830;12.082;2022-09-27T08:05:20;0.85;;;0.85;;
16099;SDS011;8154;50.830;12.082;2022-09-27T08:08:04;1.00;;;1.00;;
16099;SDS011;8154;50.830;12.082;2022-09-27T08:10:50;0.90;;;0.90;;
16099;SDS011;8154;50.830;12.082;2022-09-27T08:13:35;0.90;;;0.90;;
16099;SDS011;8154;50.830;12.082;2022-09-27T08:16:25;0.93;;;0.93;;
16099;SDS011;8154;50.830;12.082;2022-09-27T08:19:09;0.90;;;0.90;;
16099;SDS011;8154;50.830;12.082;2022-09-27T08:21:55;1.00;;;1.00;;
16099;SDS011;8154;50.830;12.082;2022-09-27T08:24:39;0.77;;;0.77;;
16099;SDS011;8154;50.830;12.082;2022-09-27T08:27:25;1.00;;;1.00;;
16099;SDS011;8154;50.830;12.082;2022-09-27T08:30:09;1.00;;;1.00;;
16099;SDS011;8154;50.830;12.082;2022-09-27T08:32:56;1.00;;;1.00;;
16099;SDS011;8154;50.830;12.082;2022-09-27T08:35:43;0.98;;;0.98;;
16099;SDS011;8154;50.830;12.082;2022-09-27T08:38:27;1.00;;;1.00;;
16099;SDS011;8154;50.830;12.082;2022-09-27T08:41:35;0.90;;;0.90;;
16099;SDS011;8154;50.830;12.082;2022-09-27T08:48:07;0.93;;;0.93;;
16099;SDS011;8154;50.830;12.082;2022-09-27T08:50:43;0.90;;;0.90;;
16099;SDS011;8154;50.830;12.082;2022-09-27T08:53:32;1.00;;;1.00;;
16099;SDS011;8154;50.830;12.082;2022-09-27T08:56:24;0.93;;;0.93;;
16099;SDS011;8154;50.830;12.082;2022-09-27T08:59:13;0.85;;;0.85;;
16099;SDS011;8154;50.830;12.082;2022-09-27T09:02:08;0.90;;;0.90;;
16099;SDS011;8154;50.830;12.082;2022-09-27T09:05:09;1.00;;;1.00;;
16099;SDS011;8154;50.830;12.082;2022-09-27T09:15:07;0.93;;;0.93;;
16099;SDS011;8154;50.830;12.082;2022-09-27T09:21:13;1.00;;;1.00;;
16099;SDS011;8154;50.830;12.082;2022-09-27T09:34:16;1.00;;;1.00;;
16099;SDS011;8154;50.830;12.082;2022-09-27T09:37:24;0.90;;;0.90;;
16099;SDS011;8154;50.830;12.082;2022-09-27T09:40:16;0.80;;;0.80;;
16099;SDS011;8154;50.830;12.082;2022-09-27T09:43:12;0.98;;;0.98;;
16099;SDS011;8154;50.830;12.082;2022-09-27T09:46:10;0.80;;;0.80;;
16099;SDS011;8154;50.830;12.082;2022-09-27T09:52:01;0.93;;;0.93;;
16099;SDS011;8154;50.830;12.082;2022-09-27T09:55:46;0.95;;;0.95;;
16099;SDS011;8154;50.830;12.082;2022-09-27T10:01:39;1.00;;;1.00;;
16099;SDS011;8154;50.830;12.082;2022-09-27T10:04:31;0.80;;;0.80;;
16099;SDS011;8154;50.830;12.082;2022-09-27T10:07:22;0.90;;;0.90;;
16099;SDS011;8154;50.830;12.082;2022-09-27T10:10:07;0.90;;;0.90;;
16099;SDS011;8154;50.830;12.082;2022-09-27T10:16:43;0.90;;;0.90;;
16099;SDS011;8154;50.830;12.082;2022-09-27T10:19:32;0.90;;;0.90;;
16099;SDS011;8154;50.830;12.082;2022-09-27T10:22:25;0.90;;;0.90;;
16099;SDS011;8154;50.830;12.082;2022-09-27T10:25:19;0.80;;;0.80;;
16099;SDS011;8154;50.830;12.082;2022-09-27T10:32:30;0.80;;;0.80;;
16099;SDS011;8154;50.830;12.082;2022-09-27T10:41:16;0.90;;;0.90;;
16099;SDS011;8154;50.830;12.082;2022-09-27T10:44:19;0.90;;;0.90;;
16099;SDS011;8154;50.830;12.082;2022-09-27T10:50:58;0.73;;;0.73;;
16099;SDS011;8154;50.830;12.082;2022-09-27T10:53:46;0.80;;;0.80;;
16099;SDS011;8154;50.830;12.082;2022-09-27T10:56:33;1.00;;;1.00;;
16099;SDS011;8154;50.830;12.082;2022-09-27T10:59:19;0.90;;;0.90;;
16099;SDS011;8154;50.830;12.082;2022-09-27T11:02:16;0.90;;;0.90;;
16099;SDS011;8154;50.830;12.082;2022-09-27T11:05:27;0.90;;;0.90;;
16099;SDS011;8154;50.830;12.082;2022-09-27T11:08:23;0.77;;;0.77;;
16099;SDS011;8154;50.830;12.082;2022-09-27T11:14:05;0.80;;;0.80;;
16099;SDS011;8154;50.830;12.082;2022-09-27T11:24:24;0.90;;;0.90;;
16099;SDS011;8154;50.830;12.082;2022-09-27T11:30:57;0.90;;;0.90;;
16099;SDS011;8154;50.830;12.082;2022-09-27T12:10:45;0.80;;;0.80;;
16099;SDS011;8154;50.830;12.082;2022-09-27T12:13:40;0.90;;;0.90;;
16099;SDS011;8154;50.830;12.082;2022-09-27T12:16:31;1.00;;;1.00;;
16099;SDS011;8154;50.830;12.082;2022-09-27T12:19:27;1.00;;;1.00;;
16099;SDS011;8154;50.830;12.082;2022-09-27T12:22:17;0.95;;;0.95;;
16099;SDS011;8154;50.830;12.082;2022-09-27T12:25:16;1.02;;;1.02;;
16099;SDS011;8154;50.830;12.082;2022-09-27T12:31:21;0.90;;;0.90;;
16099;SDS011;8154;50.830;12.082;2022-09-27T12:34:16;1.10;;;1.10;;
16099;SDS011;8154;50.830;12.082;2022-09-27T12:37:26;0.95;;;0.95;;
16099;SDS011;8154;50.830;12.082;2022-09-27T12:43:32;1.00;;;1.00;;
16099;SDS011;8154;50.830;12.082;2022-09-27T12:49:47;1.05;;;1.05;;
16099;SDS011;8154;50.830;12.082;2022-09-27T12:52:49;1.00;;;1.00;;
16099;SDS011;8154;50.830;12.082;2022-09-27T12:58:48;1.05;;;1.05;;
16099;SDS011;8154;50.830;12.082;2022-09-27T13:08:33;1.00;;;1.00;;
16099;SDS011;8154;50.830;12.082;2022-09-27T13:14:23;1.10;;;1.10;;
16099;SDS011;8154;50.830;12.082;2022-09-27T13:29:31;1.10;;;1.10;;
16099;SDS011;8154;50.830;12.082;2022-09-27T13:38:17;1.13;;;1.10;;
16099;SDS011;8154;50.830;12.082;2022-09-27T13:41:17;1.17;;;1.17;;
16099;SDS011;8154;50.830;12.082;2022-09-27T13:44:11;1.10;;;1.10;;
16099;SDS011;8154;50.830;12.082;2022-09-27T13:50:21;1.00;;;1.00;;
16099;SDS011;8154;50.830;12.082;2022-09-27T13:56:44;1.00;;;1.00;;
16099;SDS011;8154;50.830;12.082;2022-09-27T13:59:23;1.00;;;1.00;;
16099;SDS011;8154;50.830;12.082;2022-09-27T14:03:19;1.00;;;1.00;;
16099;SDS011;8154;50.830;12.082;2022-09-27T14:08:36;1.20;;;1.10;;
16099;SDS011;8154;50.830;12.082;2022-09-27T14:14:23;1.05;;;1.05;;
16099;SDS011;8154;50.830;12.082;2022-09-27T14:17:12;1.00;;;1.00;;
16099;SDS011;8154;50.830;12.082;2022-09-27T14:19:56;1.00;;;1.00;;
16099;SDS011;8154;50.830;12.082;2022-09-27T14:22:40;1.10;;;1.10;;
16099;SDS011;8154;50.830;12.082;2022-09-27T14:25:25;0.93;;;0.93;;
16099;SDS011;8154;50.830;12.082;2022-09-27T14:28:20;1.10;;;1.10;;
16099;SDS011;8154;50.830;12.082;2022-09-27T14:31:17;0.90;;;0.90;;
16099;SDS011;8154;50.830;12.082;2022-09-27T14:34:06;1.10;;;1.10;;
16099;SDS011;8154;50.830;12.082;2022-09-27T14:36:54;1.15;;;1.13;;
16099;SDS011;8154;50.830;12.082;2022-09-27T14:39:59;1.00;;;1.00;;
16099;SDS011;8154;50.830;12.082;2022-09-27T14:42:54;1.00;;;1.00;;
16099;SDS011;8154;50.830;12.082;2022-09-27T14:45:44;1.10;;;1.10;;
16099;SDS011;8154;50.830;12.082;2022-09-27T14:48:35;0.85;;;0.85;;
16099;SDS011;8154;50.830;12.082;2022-09-27T14:51:28;1.10;;;1.10;;
16099;SDS011;8154;50.830;12.082;2022-09-27T14:54:19;1.00;;;1.00;;
16099;SDS011;8154;50.830;12.082;2022-09-27T15:00:49;1.10;;;1.10;;
16099;SDS011;8154;50.830;12.082;2022-09-27T15:03:34;1.30;;;1.20;;
16099;SDS011;8154;50.830;12.082;2022-09-27T15:06:23;0.95;;;0.95;;
16099;SDS011;8154;50.830;12.082;2022-09-27T15:09:22;1.10;;;1.10;;
16099;SDS011;8154;50.830;12.082;2022-09-27T15:12:29;1.13;;;1.13;;
16099;SDS011;8154;50.830;12.082;2022-09-27T15:15:18;1.10;;;1.10;;
16099;SDS011;8154;50.830;12.082;2022-09-27T15:21:14;1.15;;;1.15;;
16099;SDS011;8154;50.830;12.082;2022-09-27T15:24:38;1.20;;;1.13;;
16099;SDS011;8154;50.830;12.082;2022-09-27T15:27:26;1.30;;;1.20;;
16099;SDS011;8154;50.830;12.082;2022-09-27T15:30:15;1.00;;;1.00;;
16099;SDS011;8154;50.830;12.082;2022-09-27T15:33:01;1.10;;;1.10;;
16099;SDS011;8154;50.830;12.082;2022-09-27T15:35:53;1.10;;;1.10;;
16099;SDS011;8154;50.830;12.082;2022-09-27T15:38:42;1.13;;;1.13;;
16099;SDS011;8154;50.830;12.082;2022-09-27T15:42:00;1.00;;;1.00;;
16099;SDS011;8154;50.830;12.082;2022-09-27T15:45:07;1.10;;;1.10;;
16099;SDS011;8154;50.830;12.082;2022-09-27T15:48:18;1.27;;;1.20;;
16099;SDS011;8154;50.830;12.082;2022-09-27T15:51:05;1.40;;;1.30;;
16099;SDS011;8154;50.830;12.082;2022-09-27T15:54:26;1.10;;;1.10;;
16099;SDS011;8154;50.830;12.082;2022-09-27T15:57:19;1.10;;;1.10;;
16099;SDS011;8154;50.830;12.082;2022-09-27T16:00:04;1.20;;;1.10;;
16099;SDS011;8154;50.830;12.082;2022-09-27T16:02:49;1.10;;;1.10;;
16099;SDS011;8154;50.830;12.082;2022-09-27T16:05:34;1.10;;;1.10;;
16099;SDS011;8154;50.830;12.082;2022-09-27T16:08:20;1.17;;;1.10;;
16099;SDS011;8154;50.830;12.082;2022-09-27T16:11:08;1.10;;;1.10;;
16099;SDS011;8154;50.830;12.082;2022-09-27T16:13:55;1.08;;;1.08;;
16099;SDS011;8154;50.830;12.082;2022-09-27T16:16:40;1.00;;;1.00;;
16099;SDS011;8154;50.830;12.082;2022-09-27T16:19:31;1.10;;;1.10;;
16099;SDS011;8154;50.830;12.082;2022-09-27T16:22:16;1.00;;;1.00;;
16099;SDS011;8154;50.830;12.082;2022-09-27T16:25:01;1.05;;;1.05;;
16099;SDS011;8154;50.830;12.082;2022-09-27T16:27:46;1.10;;;1.10;;
16099;SDS011;8154;50.830;12.082;2022-09-27T16:30:32;1.17;;;1.10;;
16099;SDS011;8154;50.830;12.082;2022-09-27T16:33:16;1.00;;;1.00;;
16099;SDS011;8154;50.830;12.082;2022-09-27T16:36:06;1.10;;;1.10;;
16099;SDS011;8154;50.830;12.082;2022-09-27T16:39:02;1.10;;;1.10;;
16099;SDS011;8154;50.830;12.082;2022-09-27T16:41:49;1.15;;;1.10;;
16099;SDS011;8154;50.830;12.082;2022-09-27T16:44:36;1.00;;;1.00;;
16099;SDS011;8154;50.830;12.082;2022-09-27T16:47:20;1.00;;;1.00;;
16099;SDS011;8154;50.830;12.082;2022-09-27T16:50:05;1.30;;;1.20;;
16099;SDS011;8154;50.830;12.082;2022-09-27T16:53:09;1.20;;;1.20;;
16099;SDS011;8154;50.830;12.082;2022-09-27T16:55:58;1.00;;;1.00;;
16099;SDS011;8154;50.830;12.082;2022-09-27T16:58:44;1.13;;;1.13;;
16099;SDS011;8154;50.830;12.082;2022-09-27T17:01:28;1.10;;;1.10;;
16099;SDS011;8154;50.830;12.082;2022-09-27T17:04:12;1.00;;;1.00;;
16099;SDS011;8154;50.830;12.082;2022-09-27T17:06:57;1.10;;;1.10;;
16099;SDS011;8154;50.830;12.082;2022-09-27T17:09:41;1.15;;;1.15;;
16099;SDS011;8154;50.830;12.082;2022-09-27T17:12:26;1.38;;;1.30;;
16099;SDS011;8154;50.830;12.082;2022-09-27T17:15:10;1.02;;;1.02;;
16099;SDS011;8154;50.830;12.082;2022-09-27T17:17:55;1.10;;;1.10;;
16099;SDS011;8154;50.830;12.082;2022-09-27T17:20:39;1.13;;;1.13;;
16099;SDS011;8154;50.830;12.082;2022-09-27T17:23:24;1.23;;;1.20;;
16099;SDS011;8154;50.830;12.082;2022-09-27T17:26:16;1.10;;;1.10;;
16099;SDS011;8154;50.830;12.082;2022-09-27T17:29:06;1.10;;;1.10;;
16099;SDS011;8154;50.830;12.082;2022-09-27T17:31:57;1.05;;;1.05;;
16099;SDS011;8154;50.830;12.082;2022-09-27T17:34:43;1.10;;;1.10;;
16099;SDS011;8154;50.830;12.082;2022-09-27T17:37:27;1.40;;;1.30;;
16099;SDS011;8154;50.830;12.082;2022-09-27T17:40:12;0.95;;;0.95;;
16099;SDS011;8154;50.830;12.082;2022-09-27T17:42:56;1.10;;;1.10;;
16099;SDS011;8154;50.830;12.082;2022-09-27T17:45:43;1.02;;;1.02;;
16099;SDS011;8154;50.830;12.082;2022-09-27T17:48:29;1.30;;;1.20;;
16099;SDS011;8154;50.830;12.082;2022-09-27T17:51:33;1.08;;;1.08;;
16099;SDS011;8154;50.830;12.082;2022-09-27T17:54:20;1.10;;;1.10;;
16099;SDS011;8154;50.830;12.082;2022-09-27T17:57:07;1.13;;;1.10;;
16099;SDS011;8154;50.830;12.082;2022-09-27T17:59:55;1.38;;;1.27;;
16099;SDS011;8154;50.830;12.082;2022-09-27T18:02:42;1.10;;;1.10;;
16099;SDS011;8154;50.830;12.082;2022-09-27T18:05:34;1.10;;;1.10;;
16099;SDS011;8154;50.830;12.082;2022-09-27T18:08:21;1.20;;;1.20;;
16099;SDS011;8154;50.830;12.082;2022-09-27T18:11:06;1.35;;;1.25;;
16099;SDS011;8154;50.830;12.082;2022-09-27T18:13:52;1.17;;;1.17;;
16099;SDS011;8154;50.830;12.082;2022-09-27T18:16:39;1.30;;;1.25;;
16099;SDS011;8154;50.830;12.082;2022-09-27T18:19:26;1.15;;;1.15;;
16099;SDS011;8154;50.830;12.082;2022-09-27T18:22:10;1.10;;;1.10;;
16099;SDS011;8154;50.830;12.082;2022-09-27T18:24:54;1.10;;;1.10;;
16099;SDS011;8154;50.830;12.082;2022-09-27T18:27:39;1.20;;;1.20;;
16099;SDS011;8154;50.830;12.082;2022-09-27T18:30:32;1.10;;;1.10;;
16099;SDS011;8154;50.830;12.082;2022-09-27T18:33:21;1.20;;;1.20;;
16099;SDS011;8154;50.830;12.082;2022-09-27T18:36:17;1.10;;;1.10;;
16099;SDS011;8154;50.830;12.082;2022-09-27T18:39:04;1.17;;;1.17;;
16099;SDS011;8154;50.830;12.082;2022-09-27T18:41:53;1.10;;;1.10;;
16099;SDS011;8154;50.830;12.082;2022-09-27T18:44:39;1.20;;;1.20;;
16099;SDS011;8154;50.830;12.082;2022-09-27T18:47:24;1.25;;;1.20;;
16099;SDS011;8154;50.830;12.082;2022-09-27T18:50:08;1.45;;;1.35;;
16099;SDS011;8154;50.830;12.082;2022-09-27T18:52:53;1.10;;;1.10;;
16099;SDS011;8154;50.830;12.082;2022-09-27T18:55:42;1.27;;;1.17;;
16099;SDS011;8154;50.830;12.082;2022-09-27T18:58:30;1.30;;;1.20;;
16099;SDS011;8154;50.830;12.082;2022-09-27T19:01:16;1.10;;;1.10;;
16099;SDS011;8154;50.830;12.082;2022-09-27T19:04:01;1.05;;;1.05;;
16099;SDS011;8154;50.830;12.082;2022-09-27T19:06:45;1.10;;;1.10;;
16099;SDS011;8154;50.830;12.082;2022-09-27T19:09:29;1.10;;;1.10;;
16099;SDS011;8154;50.830;12.082;2022-09-27T19:12:15;1.10;;;1.10;;
16099;SDS011;8154;50.830;12.082;2022-09-27T19:14:59;1.08;;;1.08;;
16099;SDS011;8154;50.830;12.082;2022-09-27T19:17:48;1.10;;;1.10;;
16099;SDS011;8154;50.830;12.082;2022-09-27T19:20:34;1.15;;;1.15;;
16099;SDS011;8154;50.830;12.082;2022-09-27T19:23:19;1.10;;;1.10;;
16099;SDS011;8154;50.830;12.082;2022-09-27T19:26:10;1.15;;;1.15;;
16099;SDS011;8154;50.830;12.082;2022-09-27T19:28:56;0.98;;;0.98;;
16099;SDS011;8154;50.830;12.082;2022-09-27T19:31:41;1.10;;;1.10;;
16099;SDS011;8154;50.830;12.082;2022-09-27T19:34:25;1.10;;;1.10;;
16099;SDS011;8154;50.830;12.082;2022-09-27T19:37:10;1.40;;;1.30;;
16099;SDS011;8154;50.830;12.082;2022-09-27T19:39:56;1.00;;;1.00;;
16099;SDS011;8154;50.830;12.082;2022-09-27T19:42:41;1.10;;;1.10;;
16099;SDS011;8154;50.830;12.082;2022-09-27T19:45:25;1.10;;;1.10;;
16099;SDS011;8154;50.830;12.082;2022-09-27T19:48:10;1.00;;;1.00;;
16099;SDS011;8154;50.830;12.082;2022-09-27T19:50:59;1.20;;;1.20;;
16099;SDS011;8154;50.830;12.082;2022-09-27T19:53:45;1.17;;;1.17;;
16099;SDS011;8154;50.830;12.082;2022-09-27T19:56:30;1.00;;;1.00;;
16099;SDS011;8154;50.830;12.082;2022-09-27T19:59:15;1.17;;;1.17;;
16099;SDS011;8154;50.830;12.082;2022-09-27T20:01:59;1.00;;;1.00;;
16099;SDS011;8154;50.830;12.082;2022-09-27T20:04:44;1.20;;;1.20;;
16099;SDS011;8154;50.830;12.082;2022-09-27T20:07:28;1.17;;;1.10;;
16099;SDS011;8154;50.830;12.082;2022-09-27T20:10:13;1.20;;;1.20;;